createdAt,value
2022-10-17T00:00:07.738Z,1016.0
2022-10-17T00:05:08.158Z,1015.97
2022-10-17T00:10:07.842Z,1015.96
2022-10-17T00:15:08.553Z,1015.87
2022-10-17T00:20:08.269Z,1015.92
2022-10-17T00:25:07.982Z,1015.85
2022-10-17T00:30:07.853Z,1015.78
2022-10-17T00:35:08.542Z,1015.77
2022-10-17T00:40:08.256Z,1015.93
2022-10-17T00:45:07.953Z,1015.86
2022-10-17T00:50:07.643Z,1015.83
2022-10-17T00:55:08.513Z,1015.73
2022-10-17T01:00:08.229Z,1015.7
2022-10-17T01:05:07.933Z,1015.64
2022-10-17T01:10:07.642Z,1015.64
2022-10-17T01:15:08.394Z,1015.53
2022-10-17T01:20:08.130Z,1015.47
2022-10-17T01:25:07.842Z,1015.47
2022-10-17T01:30:18.535Z,1015.47
2022-10-17T01:35:08.214Z,1015.45
2022-10-17T01:40:07.935Z,1015.51
2022-10-17T01:45:07.650Z,1015.41
2022-10-17T01:50:08.345Z,1015.38
2022-10-17T01:55:08.047Z,1015.31
2022-10-17T02:00:07.730Z,1015.33
2022-10-17T02:05:08.440Z,1015.18
2022-10-17T02:10:08.201Z,1015.12
2022-10-17T02:15:07.934Z,1015.11
2022-10-17T02:20:16.374Z,1015.1
2022-10-17T02:25:08.065Z,1015.05
2022-10-17T02:30:07.777Z,1015.07
2022-10-17T02:35:08.506Z,1015.03
2022-10-17T02:40:08.178Z,1015.03
2022-10-17T02:45:07.889Z,1015.15
2022-10-17T02:50:08.584Z,1015.22
2022-10-17T02:55:08.276Z,1015.18
2022-10-17T03:00:07.967Z,1015.16
2022-10-17T03:05:07.689Z,1015.06
2022-10-17T03:10:08.432Z,1015.19
2022-10-17T03:15:08.145Z,1015.12
2022-10-17T03:20:07.854Z,1015.07
2022-10-17T03:25:08.595Z,1015.15
2022-10-17T03:30:08.326Z,1015.15
2022-10-17T03:35:10.187Z,1015.22
2022-10-17T03:40:08.596Z,1015.19
2022-10-17T03:45:08.312Z,1015.26
2022-10-17T03:50:08.228Z,1015.26
2022-10-17T03:55:07.901Z,1015.34
2022-10-17T04:00:08.633Z,1015.39
2022-10-17T04:05:02.458Z,1015.32
2022-10-17T04:10:02.328Z,1015.39
2022-10-17T04:15:02.118Z,1015.35
2022-10-17T04:20:01.977Z,1015.37
2022-10-17T04:25:01.854Z,1015.39
2022-10-17T04:30:02.533Z,1015.36
2022-10-17T04:35:02.359Z,1015.21
2022-10-17T04:40:02.207Z,1015.28
2022-10-17T04:45:02.032Z,1015.27
2022-10-17T04:50:01.862Z,1015.35
2022-10-17T04:55:02.817Z,1015.37
2022-10-17T05:00:02.720Z,1015.21
2022-10-17T05:05:02.613Z,1015.43
2022-10-17T05:10:02.376Z,1015.52
2022-10-17T05:15:02.228Z,1015.54
2022-10-17T05:20:02.054Z,1015.57
2022-10-17T05:25:01.893Z,1015.63
2022-10-17T05:30:02.720Z,1015.6
2022-10-17T05:35:02.643Z,1015.78
2022-10-17T05:40:02.601Z,1015.72
2022-10-17T05:45:02.620Z,1015.88
2022-10-17T05:50:02.526Z,1015.94
2022-10-17T05:55:02.408Z,1015.8
2022-10-17T06:00:02.293Z,1015.86
2022-10-17T06:05:02.152Z,1015.99
2022-10-17T06:10:01.958Z,1015.98
2022-10-17T06:15:02.006Z,1015.99
2022-10-17T06:20:01.851Z,1016.05
2022-10-17T06:25:02.644Z,1016.2
2022-10-17T06:30:02.398Z,1016.22
2022-10-17T06:35:02.316Z,1016.29
2022-10-17T06:40:02.170Z,1016.23
2022-10-17T06:45:02.015Z,1016.29
2022-10-17T06:50:01.803Z,1016.3
2022-10-17T07:00:02.420Z,1016.52
2022-10-17T07:05:02.241Z,1016.6
2022-10-17T07:10:02.086Z,1016.46
2022-10-17T07:15:01.919Z,1016.41
2022-10-17T07:20:02.786Z,1016.52
2022-10-17T07:25:02.691Z,1016.52
2022-10-17T07:30:02.501Z,1016.53
2022-10-17T07:35:02.313Z,1016.57
2022-10-17T07:40:02.174Z,1016.54
2022-10-17T07:45:01.985Z,1016.65
2022-10-17T07:50:01.798Z,1016.73
2022-10-17T07:55:02.806Z,1016.68
2022-10-17T08:00:02.596Z,1016.59
2022-10-17T08:05:02.437Z,1016.77
2022-10-17T08:10:02.388Z,1016.74
2022-10-17T08:15:02.281Z,1017.04
2022-10-17T08:20:02.397Z,1017.07
2022-10-17T08:25:02.255Z,1017.08
2022-10-17T08:30:02.213Z,1017.14
2022-10-17T08:35:02.044Z,1017.22
2022-10-17T08:40:02.028Z,1017.3
2022-10-17T08:45:01.982Z,1017.61
2022-10-17T08:50:01.897Z,1017.64
2022-10-17T08:55:02.850Z,1017.6
2022-10-17T09:00:02.725Z,1017.73
2022-10-17T09:05:02.749Z,1017.92
2022-10-17T09:10:02.668Z,1018.07
2022-10-17T09:15:02.529Z,1018.04
2022-10-17T09:20:02.387Z,1018.07
2022-10-17T09:25:08.382Z,1018.21
2022-10-17T09:30:02.232Z,1018.23
2022-10-17T09:35:02.109Z,1018.34
2022-10-17T09:40:02.003Z,1018.34
2022-10-17T09:45:10.224Z,1018.32
2022-10-17T09:50:01.981Z,1018.34
2022-10-17T09:55:01.818Z,1018.3
2022-10-17T10:00:02.783Z,1018.37
2022-10-17T10:05:05.105Z,1018.59
2022-10-17T10:10:02.731Z,1019.13
2022-10-17T10:15:02.646Z,1019.46
2022-10-17T10:20:02.517Z,1019.2
2022-10-17T10:25:12.326Z,1018.74
2022-10-17T10:30:02.264Z,1018.44
2022-10-17T10:35:02.123Z,1018.34
2022-10-17T10:40:01.958Z,1018.88
2022-10-17T10:45:02.127Z,1019.24
2022-10-17T10:50:01.992Z,1019.11
2022-10-17T10:55:01.805Z,1019.16
2022-10-17T11:00:02.903Z,1018.92
2022-10-17T11:05:02.981Z,1018.97
2022-10-17T11:10:01.936Z,1019.1
2022-10-17T11:15:02.947Z,1019.1
2022-10-17T11:20:02.877Z,1019.39
2022-10-17T11:25:04.405Z,1019.13
2022-10-17T11:30:02.351Z,1019.03
2022-10-17T11:35:12.238Z,1019.21
2022-10-17T11:40:02.103Z,1019.34
2022-10-17T11:45:01.936Z,1019.21
2022-10-17T11:55:02.532Z,1019.3
2022-10-17T12:00:02.328Z,1019.57
2022-10-17T12:05:02.174Z,1019.52
2022-10-17T12:10:02.158Z,1019.77
2022-10-17T12:15:12.043Z,1019.75
2022-10-17T12:20:01.888Z,1019.75
2022-10-17T12:25:02.735Z,1019.71
2022-10-17T12:30:02.741Z,1019.71
2022-10-17T12:35:02.593Z,1019.65
2022-10-17T12:40:02.504Z,1019.65
2022-10-17T12:45:02.319Z,1019.55
2022-10-17T12:50:02.047Z,1019.69
2022-10-17T12:55:12.703Z,1019.8
2022-10-17T13:00:02.463Z,1019.85
2022-10-17T13:05:02.281Z,1019.84
2022-10-17T13:10:02.122Z,1019.85
2022-10-17T13:15:01.937Z,1019.84
2022-10-17T13:20:02.795Z,1019.81
2022-10-17T13:25:02.662Z,1019.88
2022-10-17T13:30:02.412Z,1019.98
2022-10-17T13:35:02.263Z,1020.05
2022-10-17T13:40:07.356Z,1020.07
2022-10-17T13:45:02.514Z,1020.19
2022-10-17T13:50:02.424Z,1020.18
2022-10-17T13:55:02.332Z,1020.29
2022-10-17T14:00:02.232Z,1020.38
2022-10-17T14:05:16.705Z,1020.51
2022-10-17T14:10:02.493Z,1020.56
2022-10-17T14:15:10.763Z,1020.51
2022-10-17T14:20:30.867Z,1020.62
2022-10-17T14:25:02.739Z,1020.68
2022-10-17T14:30:02.661Z,1020.58
2022-10-17T14:35:18.815Z,1020.79
2022-10-17T14:40:02.189Z,1020.8
2022-10-17T14:45:02.009Z,1020.96
2022-10-17T14:50:01.846Z,1020.94
2022-10-17T14:55:02.725Z,1021.11
2022-10-17T15:00:03.184Z,1021.32
2022-10-17T15:05:02.001Z,1021.4
2022-10-17T15:10:01.867Z,1021.51
2022-10-17T15:15:02.742Z,1021.6
2022-10-17T15:20:02.541Z,1021.6
2022-10-17T15:25:02.455Z,1021.62
2022-10-17T15:30:02.288Z,1021.57
2022-10-17T15:35:02.334Z,1021.48
2022-10-17T15:40:02.153Z,1021.4
2022-10-17T15:45:02.214Z,1021.32
2022-10-17T15:50:02.071Z,1021.32
2022-10-17T15:55:04.373Z,1021.4
2022-10-17T16:00:02.886Z,1021.34
2022-10-17T16:05:02.735Z,1021.52
2022-10-17T16:10:02.577Z,1021.51
2022-10-17T16:15:02.513Z,1021.76
2022-10-17T16:20:02.322Z,1022.02
2022-10-17T16:25:02.252Z,1022.09
2022-10-17T16:30:02.097Z,1022.05
2022-10-17T16:35:02.052Z,1022.11
2022-10-17T16:40:01.987Z,1022.09
2022-10-17T16:45:02.027Z,1022.21
2022-10-17T16:50:01.788Z,1022.24
2022-10-17T16:55:02.784Z,1022.28
2022-10-17T17:00:02.867Z,1022.41
2022-10-17T17:05:02.615Z,1022.33
2022-10-17T17:10:02.587Z,1022.53
2022-10-17T17:15:02.638Z,1022.5
2022-10-17T17:20:02.444Z,1022.4
2022-10-17T17:25:02.349Z,1022.49
2022-10-17T17:30:02.200Z,1022.47
2022-10-17T17:35:01.986Z,1022.54
2022-10-17T17:40:01.859Z,1022.6
2022-10-17T17:45:02.695Z,1022.58
2022-10-17T17:50:02.513Z,1022.67
2022-10-17T17:55:02.406Z,1022.74
2022-10-17T18:00:02.188Z,1022.72
2022-10-17T18:05:02.165Z,1022.77
2022-10-17T18:10:01.951Z,1022.74
2022-10-17T18:15:03.903Z,1022.88
2022-10-17T18:20:02.727Z,1022.98
2022-10-17T18:25:02.563Z,1023.0
2022-10-17T18:30:02.390Z,1023.12
2022-10-17T18:35:02.208Z,1023.16
2022-10-17T18:40:02.078Z,1023.14
2022-10-17T18:45:01.921Z,1023.14
2022-10-17T18:50:02.707Z,1023.22
2022-10-17T18:55:02.585Z,1023.29
2022-10-17T19:00:02.541Z,1023.3
2022-10-17T19:05:02.629Z,1023.27
2022-10-17T19:10:02.515Z,1023.49
2022-10-17T19:15:02.501Z,1023.49
2022-10-17T19:20:02.433Z,1023.38
2022-10-17T19:25:02.450Z,1023.41
2022-10-17T19:30:02.437Z,1023.49
2022-10-17T19:35:02.318Z,1023.36
2022-10-17T19:40:02.268Z,1023.45
2022-10-17T19:45:02.039Z,1023.57
2022-10-17T19:55:02.907Z,1023.5
2022-10-17T20:00:02.961Z,1023.61
2022-10-17T20:05:17.657Z,1023.6
2022-10-17T20:10:02.113Z,1023.63
2022-10-17T20:15:01.961Z,1023.57
2022-10-17T20:20:04.880Z,1023.5
2022-10-17T20:25:02.399Z,1023.55
2022-10-17T20:30:02.290Z,1023.69
2022-10-17T20:35:14.968Z,1023.67
2022-10-17T20:45:08.518Z,1023.85
2022-10-17T20:50:08.247Z,1023.89
2022-10-17T20:55:07.960Z,1023.93
2022-10-17T21:00:07.789Z,1023.95
2022-10-17T21:05:08.485Z,1023.99
2022-10-17T21:10:24.038Z,1024.06
2022-10-17T21:15:07.891Z,1024.09
2022-10-17T21:20:08.606Z,1024.16
2022-10-17T21:25:08.277Z,1024.25
2022-10-17T21:35:07.701Z,1024.4
2022-10-17T21:40:08.453Z,1024.34
2022-10-17T21:45:15.005Z,1024.18
2022-10-17T21:50:07.689Z,1024.29
2022-10-17T21:55:08.395Z,1024.18
2022-10-17T22:00:08.113Z,1024.23
2022-10-17T22:05:07.817Z,1024.26
2022-10-17T22:10:08.521Z,1024.42
2022-10-17T22:15:08.282Z,1024.35
2022-10-17T22:20:07.996Z,1024.41
2022-10-17T22:25:07.672Z,1024.41
2022-10-17T22:30:08.356Z,1024.41
2022-10-17T22:35:08.009Z,1024.39
2022-10-17T22:40:07.711Z,1024.46
2022-10-17T22:45:08.453Z,1024.57
2022-10-17T22:50:08.165Z,1024.61
2022-10-17T22:55:07.846Z,1024.66
2022-10-17T23:01:03.030Z,1024.65
2022-10-17T23:05:07.727Z,1024.63
2022-10-17T23:10:07.964Z,1024.54
2022-10-17T23:15:07.668Z,1024.56
2022-10-17T23:20:08.391Z,1024.66
2022-10-17T23:25:08.107Z,1024.73
2022-10-17T23:30:07.802Z,1024.65
2022-10-17T23:35:08.522Z,1024.72
2022-10-17T23:40:08.248Z,1024.73
2022-10-17T23:45:07.958Z,1024.72
2022-10-17T23:50:08.645Z,1024.65
2022-10-17T23:55:08.342Z,1024.7
